sensor_id;sensor_type;location;lat;lon;timestamp;P1;durP1;ratioP1;P2;durP2;ratioP2
28796;SDS011;24974;54.444;18.560;2022-12-29T06:46:22;16.70;;;12.93;;
28796;SDS011;24974;54.444;18.560;2022-12-29T06:48:53;19.30;;;13.57;;
28796;SDS011;24974;54.444;18.560;2022-12-29T06:51:24;16.25;;;13.63;;
28796;SDS011;24974;54.444;18.560;2022-12-29T06:53:55;20.27;;;13.73;;
28796;SDS011;24974;54.444;18.560;2022-12-29T06:56:26;23.65;;;13.80;;
28796;SDS011;24974;54.444;18.560;2022-12-29T06:58:57;16.35;;;13.27;;
28796;SDS011;24974;54.444;18.560;2022-12-29T07:01:30;16.17;;;13.93;;
28796;SDS011;24974;54.444;18.560;2022-12-29T07:04:02;17.52;;;13.70;;
28796;SDS011;24974;54.444;18.560;2022-12-29T07:06:33;19.83;;;13.65;;
28796;SDS011;24974;54.444;18.560;2022-12-29T07:09:04;15.70;;;12.52;;
28796;SDS011;24974;54.444;18.560;2022-12-29T07:11:35;18.30;;;13.70;;
28796;SDS011;24974;54.444;18.560;2022-12-29T07:14:06;16.52;;;12.85;;
28796;SDS011;24974;54.444;18.560;2022-12-29T07:16:37;15.35;;;13.70;;
28796;SDS011;24974;54.444;18.560;2022-12-29T07:19:08;15.95;;;12.20;;
28796;SDS011;24974;54.444;18.560;2022-12-29T07:21:39;15.40;;;12.35;;
28796;SDS011;24974;54.444;18.560;2022-12-29T07:24:10;15.57;;;13.93;;
28796;SDS011;24974;54.444;18.560;2022-12-29T07:26:41;17.55;;;14.52;;
28796;SDS011;24974;54.444;18.560;2022-12-29T07:29:12;17.05;;;13.55;;
28796;SDS011;24974;54.444;18.560;2022-12-29T07:31:43;17.15;;;12.73;;
28796;SDS011;24974;54.444;18.560;2022-12-29T07:34:14;17.23;;;13.95;;
28796;SDS011;24974;54.444;18.560;2022-12-29T07:36:44;16.38;;;12.65;;
28796;SDS011;24974;54.444;18.560;2022-12-29T07:39:15;18.50;;;14.10;;
28796;SDS011;24974;54.444;18.560;2022-12-29T07:41:46;19.85;;;13.13;;
28796;SDS011;24974;54.444;18.560;2022-12-29T07:44:21;16.08;;;12.77;;
28796;SDS011;24974;54.444;18.560;2022-12-29T07:46:55;17.33;;;12.80;;
28796;SDS011;24974;54.444;18.560;2022-12-29T07:49:27;15.68;;;11.98;;
28796;SDS011;24974;54.444;18.560;2022-12-29T07:51:57;16.88;;;12.13;;
28796;SDS011;24974;54.444;18.560;2022-12-29T07:54:28;16.65;;;12.40;;
28796;SDS011;24974;54.444;18.560;2022-12-29T07:56:59;16.05;;;12.68;;
28796;SDS011;24974;54.444;18.560;2022-12-29T07:59:30;18.77;;;12.27;;
28796;SDS011;24974;54.444;18.560;2022-12-29T08:02:02;15.90;;;11.93;;
28796;SDS011;24974;54.444;18.560;2022-12-29T08:04:33;17.00;;;12.88;;
28796;SDS011;24974;54.444;18.560;2022-12-29T08:07:04;20.90;;;19.00;;
28796;SDS011;24974;54.444;18.560;2022-12-29T08:09:35;12.27;;;11.00;;
28796;SDS011;24974;54.444;18.560;2022-12-29T08:17:40;14.20;;;12.75;;
28796;SDS011;24974;54.444;18.560;2022-12-29T08:20:11;17.73;;;12.15;;
28796;SDS011;24974;54.444;18.560;2022-12-29T08:22:42;15.10;;;10.80;;
28796;SDS011;24974;54.444;18.560;2022-12-29T08:25:13;13.50;;;11.85;;
28796;SDS011;24974;54.444;18.560;2022-12-29T08:27:44;16.88;;;14.32;;
28796;SDS011;24974;54.444;18.560;2022-12-29T08:30:15;15.57;;;12.88;;
28796;SDS011;24974;54.444;18.560;2022-12-29T08:32:46;18.67;;;11.60;;
28796;SDS011;24974;54.444;18.560;2022-12-29T08:35:17;15.73;;;13.85;;
28796;SDS011;24974;54.444;18.560;2022-12-29T08:37:48;13.82;;;11.68;;
28796;SDS011;24974;54.444;18.560;2022-12-29T08:40:19;13.15;;;11.70;;
28796;SDS011;24974;54.444;18.560;2022-12-29T08:42:50;12.95;;;11.45;;
28796;SDS011;24974;54.444;18.560;2022-12-29T08:45:21;14.02;;;11.70;;
28796;SDS011;24974;54.444;18.560;2022-12-29T08:47:51;15.50;;;10.93;;
28796;SDS011;24974;54.444;18.560;2022-12-29T08:50:22;16.38;;;11.48;;
28796;SDS011;24974;54.444;18.560;2022-12-29T08:52:53;12.82;;;10.63;;
28796;SDS011;24974;54.444;18.560;2022-12-29T08:55:24;16.63;;;10.77;;
28796;SDS011;24974;54.444;18.560;2022-12-29T08:57:56;12.43;;;10.02;;
28796;SDS011;24974;54.444;18.560;2022-12-29T09:00:28;14.88;;;10.35;;
28796;SDS011;24974;54.444;18.560;2022-12-29T09:03:02;12.60;;;10.55;;
28796;SDS011;24974;54.444;18.560;2022-12-29T09:05:33;16.15;;;11.15;;
28796;SDS011;24974;54.444;18.560;2022-12-29T09:08:04;13.02;;;9.85;;
28796;SDS011;24974;54.444;18.560;2022-12-29T09:10:35;11.23;;;10.02;;
28796;SDS011;24974;54.444;18.560;2022-12-29T09:13:05;12.88;;;9.98;;
28796;SDS011;24974;54.444;18.560;2022-12-29T09:15:36;12.80;;;10.00;;
28796;SDS011;24974;54.444;18.560;2022-12-29T09:18:08;15.02;;;9.85;;
28796;SDS011;24974;54.444;18.560;2022-12-29T09:20:40;13.30;;;10.07;;
28796;SDS011;24974;54.444;18.560;2022-12-29T09:23:11;14.75;;;11.77;;
28796;SDS011;24974;54.444;18.560;2022-12-29T09:25:42;11.95;;;10.35;;
28796;SDS011;24974;54.444;18.560;2022-12-29T09:28:13;15.88;;;10.80;;
28796;SDS011;24974;54.444;18.560;2022-12-29T09:30:44;13.40;;;10.80;;
28796;SDS011;24974;54.444;18.560;2022-12-29T09:33:15;13.32;;;10.55;;
28796;SDS011;24974;54.444;18.560;2022-12-29T09:35:50;11.85;;;9.93;;
28796;SDS011;24974;54.444;18.560;2022-12-29T09:38:23;12.30;;;10.20;;
28796;SDS011;24974;54.444;18.560;2022-12-29T09:41:05;13.10;;;10.52;;
28796;SDS011;24974;54.444;18.560;2022-12-29T09:46:48;13.93;;;11.00;;
28796;SDS011;24974;54.444;18.560;2022-12-29T09:51:53;13.57;;;10.10;;
28796;SDS011;24974;54.444;18.560;2022-12-29T09:54:34;17.67;;;11.15;;
28796;SDS011;24974;54.444;18.560;2022-12-29T09:57:15;11.25;;;9.95;;
28796;SDS011;24974;54.444;18.560;2022-12-29T10:00:11;12.32;;;9.82;;
28796;SDS011;24974;54.444;18.560;2022-12-29T10:02:54;11.60;;;10.38;;
28796;SDS011;24974;54.444;18.560;2022-12-29T10:11:29;18.27;;;13.07;;
28796;SDS011;24974;54.444;18.560;2022-12-29T10:25:20;11.77;;;8.95;;
28796;SDS011;24974;54.444;18.560;2022-12-29T10:27:53;12.95;;;9.25;;
28796;SDS011;24974;54.444;18.560;2022-12-29T10:30:28;14.32;;;9.18;;
28796;SDS011;24974;54.444;18.560;2022-12-29T10:33:03;15.75;;;8.65;;
28796;SDS011;24974;54.444;18.560;2022-12-29T10:35:38;9.15;;;8.25;;
28796;SDS011;24974;54.444;18.560;2022-12-29T10:43:58;10.00;;;8.27;;
28796;SDS011;24974;54.444;18.560;2022-12-29T10:46:32;11.70;;;8.35;;
28796;SDS011;24974;54.444;18.560;2022-12-29T10:49:06;10.43;;;8.65;;
28796;SDS011;24974;54.444;18.560;2022-12-29T10:51:47;11.10;;;8.10;;
28796;SDS011;24974;54.444;18.560;2022-12-29T10:57:27;11.40;;;8.30;;
28796;SDS011;24974;54.444;18.560;2022-12-29T11:00:13;10.15;;;7.88;;
28796;SDS011;24974;54.444;18.560;2022-12-29T11:08:31;10.30;;;7.88;;
28796;SDS011;24974;54.444;18.560;2022-12-29T11:11:07;9.38;;;8.13;;
28796;SDS011;24974;54.444;18.560;2022-12-29T11:13:48;10.30;;;7.88;;
28796;SDS011;24974;54.444;18.560;2022-12-29T11:16:33;12.45;;;7.53;;
28796;SDS011;24974;54.444;18.560;2022-12-29T11:19:04;9.35;;;8.15;;
28796;SDS011;24974;54.444;18.560;2022-12-29T11:21:36;11.45;;;7.93;;
28796;SDS011;24974;54.444;18.560;2022-12-29T11:24:33;9.82;;;7.78;;
28796;SDS011;24974;54.444;18.560;2022-12-29T11:27:36;13.05;;;7.50;;
28796;SDS011;24974;54.444;18.560;2022-12-29T11:30:00;9.85;;;7.30;;
28796;SDS011;24974;54.444;18.560;2022-12-29T11:32:30;10.98;;;7.47;;
28796;SDS011;24974;54.444;18.560;2022-12-29T11:35:01;10.82;;;7.53;;
28796;SDS011;24974;54.444;18.560;2022-12-29T11:37:38;10.95;;;7.95;;
28796;SDS011;24974;54.444;18.560;2022-12-29T11:42:50;11.07;;;7.68;;
28796;SDS011;24974;54.444;18.560;2022-12-29T11:45:26;11.10;;;8.40;;
28796;SDS011;24974;54.444;18.560;2022-12-29T11:48:38;11.68;;;7.45;;
28796;SDS011;24974;54.444;18.560;2022-12-29T11:51:02;9.20;;;6.88;;
28796;SDS011;24974;54.444;18.560;2022-12-29T11:53:38;12.93;;;7.05;;
28796;SDS011;24974;54.444;18.560;2022-12-29T11:59:34;11.05;;;7.75;;
28796;SDS011;24974;54.444;18.560;2022-12-29T12:04:45;10.57;;;8.30;;
28796;SDS011;24974;54.444;18.560;2022-12-29T12:07:25;9.80;;;7.60;;
28796;SDS011;24974;54.444;18.560;2022-12-29T12:10:15;8.93;;;7.40;;
28796;SDS011;24974;54.444;18.560;2022-12-29T12:12:58;10.52;;;7.80;;
28796;SDS011;24974;54.444;18.560;2022-12-29T12:15:44;12.35;;;9.85;;
28796;SDS011;24974;54.444;18.560;2022-12-29T12:18:28;9.73;;;8.02;;
28796;SDS011;24974;54.444;18.560;2022-12-29T12:24:13;8.65;;;7.22;;
28796;SDS011;24974;54.444;18.560;2022-12-29T12:32:16;12.70;;;8.57;;
28796;SDS011;24974;54.444;18.560;2022-12-29T12:34:55;10.48;;;7.07;;
28796;SDS011;24974;54.444;18.560;2022-12-29T12:49:08;11.00;;;7.88;;
28796;SDS011;24974;54.444;18.560;2022-12-29T12:51:54;10.02;;;7.13;;
28796;SDS011;24974;54.444;18.560;2022-12-29T12:54:44;11.23;;;8.20;;
28796;SDS011;24974;54.444;18.560;2022-12-29T12:57:40;8.82;;;7.93;;
28796;SDS011;24974;54.444;18.560;2022-12-29T13:00:22;9.82;;;7.47;;
28796;SDS011;24974;54.444;18.560;2022-12-29T13:08:30;8.95;;;6.90;;
28796;SDS011;24974;54.444;18.560;2022-12-29T13:12:03;11.45;;;7.47;;
28796;SDS011;24974;54.444;18.560;2022-12-29T13:26:14;8.20;;;6.72;;
28796;SDS011;24974;54.444;18.560;2022-12-29T13:37:22;10.05;;;8.23;;
28796;SDS011;24974;54.444;18.560;2022-12-29T13:40:02;10.15;;;7.82;;
28796;SDS011;24974;54.444;18.560;2022-12-29T13:42:43;11.00;;;7.53;;
28796;SDS011;24974;54.444;18.560;2022-12-29T13:45:20;12.50;;;7.75;;
28796;SDS011;24974;54.444;18.560;2022-12-29T13:47:56;10.75;;;7.90;;
28796;SDS011;24974;54.444;18.560;2022-12-29T13:50:57;10.50;;;6.97;;
28796;SDS011;24974;54.444;18.560;2022-12-29T13:56:48;10.05;;;9.05;;
28796;SDS011;24974;54.444;18.560;2022-12-29T14:07:57;10.98;;;8.38;;
28796;SDS011;24974;54.444;18.560;2022-12-29T14:10:37;13.48;;;9.90;;
28796;SDS011;24974;54.444;18.560;2022-12-29T14:13:20;12.13;;;9.48;;
28796;SDS011;24974;54.444;18.560;2022-12-29T14:15:56;14.95;;;9.20;;
28796;SDS011;24974;54.444;18.560;2022-12-29T14:18:29;17.83;;;11.00;;
28796;SDS011;24974;54.444;18.560;2022-12-29T14:23:38;12.10;;;9.65;;
28796;SDS011;24974;54.444;18.560;2022-12-29T14:31:54;16.02;;;9.85;;
28796;SDS011;24974;54.444;18.560;2022-12-29T14:34:27;12.38;;;11.18;;
28796;SDS011;24974;54.444;18.560;2022-12-29T14:37:02;13.65;;;9.30;;
28796;SDS011;24974;54.444;18.560;2022-12-29T14:39:35;12.93;;;10.10;;
28796;SDS011;24974;54.444;18.560;2022-12-29T14:50:07;13.98;;;10.77;;
28796;SDS011;24974;54.444;18.560;2022-12-29T14:53:00;13.25;;;10.38;;
28796;SDS011;24974;54.444;18.560;2022-12-29T14:58:32;13.35;;;10.13;;
28796;SDS011;24974;54.444;18.560;2022-12-29T15:04:21;11.80;;;8.80;;
28796;SDS011;24974;54.444;18.560;2022-12-29T15:07:00;12.15;;;9.00;;
28796;SDS011;24974;54.444;18.560;2022-12-29T15:09:34;14.57;;;8.35;;
28796;SDS011;24974;54.444;18.560;2022-12-29T15:12:40;18.40;;;12.77;;
28796;SDS011;24974;54.444;18.560;2022-12-29T15:15:21;10.07;;;7.95;;
28796;SDS011;24974;54.444;18.560;2022-12-29T15:17:57;10.98;;;9.90;;
28796;SDS011;24974;54.444;18.560;2022-12-29T15:20:42;10.50;;;8.15;;
28796;SDS011;24974;54.444;18.560;2022-12-29T15:23:13;9.90;;;8.60;;
28796;SDS011;24974;54.444;18.560;2022-12-29T15:25:49;10.10;;;7.65;;
28796;SDS011;24974;54.444;18.560;2022-12-29T15:28:26;14.57;;;7.90;;
28796;SDS011;24974;54.444;18.560;2022-12-29T15:31:02;9.32;;;7.70;;
28796;SDS011;24974;54.444;18.560;2022-12-29T15:33:36;11.23;;;8.15;;
28796;SDS011;24974;54.444;18.560;2022-12-29T15:36:28;13.13;;;7.65;;
28796;SDS011;24974;54.444;18.560;2022-12-29T15:42:14;9.85;;;7.50;;
28796;SDS011;24974;54.444;18.560;2022-12-29T15:44:52;13.50;;;9.07;;
28796;SDS011;24974;54.444;18.560;2022-12-29T15:47:24;13.00;;;9.55;;
28796;SDS011;24974;54.444;18.560;2022-12-29T15:50:02;11.20;;;8.40;;
28796;SDS011;24974;54.444;18.560;2022-12-29T15:52:37;16.60;;;9.85;;
28796;SDS011;24974;54.444;18.560;2022-12-29T15:55:32;15.45;;;9.02;;
28796;SDS011;24974;54.444;18.560;2022-12-29T15:58:15;13.65;;;9.40;;
28796;SDS011;24974;54.444;18.560;2022-12-29T16:03:59;15.27;;;9.30;;
28796;SDS011;24974;54.444;18.560;2022-12-29T16:06:37;14.18;;;10.27;;
28796;SDS011;24974;54.444;18.560;2022-12-29T16:09:14;14.25;;;10.07;;
28796;SDS011;24974;54.444;18.560;2022-12-29T16:11:51;15.32;;;10.85;;
28796;SDS011;24974;54.444;18.560;2022-12-29T16:14:37;14.70;;;10.88;;
28796;SDS011;24974;54.444;18.560;2022-12-29T16:17:21;15.55;;;9.80;;
28796;SDS011;24974;54.444;18.560;2022-12-29T16:20:04;17.75;;;11.18;;
28796;SDS011;24974;54.444;18.560;2022-12-29T16:22:53;15.65;;;9.30;;
28796;SDS011;24974;54.444;18.560;2022-12-29T16:25:29;14.10;;;8.98;;
28796;SDS011;24974;54.444;18.560;2022-12-29T16:28:14;13.00;;;8.82;;
28796;SDS011;24974;54.444;18.560;2022-12-29T16:33:48;12.30;;;9.20;;
28796;SDS011;24974;54.444;18.560;2022-12-29T16:36:26;15.60;;;9.75;;
28796;SDS011;24974;54.444;18.560;2022-12-29T16:50:43;15.48;;;9.85;;
28796;SDS011;24974;54.444;18.560;2022-12-29T16:53:21;17.48;;;9.07;;
28796;SDS011;24974;54.444;18.560;2022-12-29T16:55:55;15.15;;;8.90;;
28796;SDS011;24974;54.444;18.560;2022-12-29T16:58:32;13.75;;;9.30;;
28796;SDS011;24974;54.444;18.560;2022-12-29T17:01:05;15.95;;;10.05;;
28796;SDS011;24974;54.444;18.560;2022-12-29T17:03:46;19.10;;;12.10;;
28796;SDS011;24974;54.444;18.560;2022-12-29T17:06:21;14.25;;;8.70;;
28796;SDS011;24974;54.444;18.560;2022-12-29T17:08:52;14.45;;;8.85;;
28796;SDS011;24974;54.444;18.560;2022-12-29T17:11:25;15.65;;;9.20;;
28796;SDS011;24974;54.444;18.560;2022-12-29T17:19:49;10.27;;;6.43;;
28796;SDS011;24974;54.444;18.560;2022-12-29T17:22:23;9.88;;;6.72;;
28796;SDS011;24974;54.444;18.560;2022-12-29T17:24:57;11.05;;;6.47;;
28796;SDS011;24974;54.444;18.560;2022-12-29T17:35:35;9.85;;;7.18;;
28796;SDS011;24974;54.444;18.560;2022-12-29T17:38:39;8.63;;;6.57;;
28796;SDS011;24974;54.444;18.560;2022-12-29T17:41:11;9.55;;;5.70;;
28796;SDS011;24974;54.444;18.560;2022-12-29T17:43:44;10.55;;;6.68;;
28796;SDS011;24974;54.444;18.560;2022-12-29T17:46:15;9.10;;;6.20;;
28796;SDS011;24974;54.444;18.560;2022-12-29T17:48:46;9.82;;;7.00;;
28796;SDS011;24974;54.444;18.560;2022-12-29T17:51:16;11.60;;;7.10;;
28796;SDS011;24974;54.444;18.560;2022-12-29T17:53:48;13.80;;;7.28;;
28796;SDS011;24974;54.444;18.560;2022-12-29T17:56:21;13.50;;;6.95;;
28796;SDS011;24974;54.444;18.560;2022-12-29T17:58:52;12.05;;;7.55;;
28796;SDS011;24974;54.444;18.560;2022-12-29T18:01:25;13.98;;;8.65;;
28796;SDS011;24974;54.444;18.560;2022-12-29T18:03:56;12.63;;;8.38;;
28796;SDS011;24974;54.444;18.560;2022-12-29T18:06:27;11.55;;;8.27;;
28796;SDS011;24974;54.444;18.560;2022-12-29T18:08:57;13.75;;;8.88;;
28796;SDS011;24974;54.444;18.560;2022-12-29T18:11:28;12.32;;;9.00;;
28796;SDS011;24974;54.444;18.560;2022-12-29T18:13:59;12.32;;;9.27;;
28796;SDS011;24974;54.444;18.560;2022-12-29T18:16:30;16.05;;;9.95;;
28796;SDS011;24974;54.444;18.560;2022-12-29T18:19:00;14.50;;;9.02;;
28796;SDS011;24974;54.444;18.560;2022-12-29T18:21:31;15.80;;;9.60;;
28796;SDS011;24974;54.444;18.560;2022-12-29T18:24:02;16.25;;;10.52;;
28796;SDS011;24974;54.444;18.560;2022-12-29T18:26:33;15.73;;;11.18;;
28796;SDS011;24974;54.444;18.560;2022-12-29T18:29:06;15.80;;;10.98;;
28796;SDS011;24974;54.444;18.560;2022-12-29T18:31:37;15.00;;;10.95;;
28796;SDS011;24974;54.444;18.560;2022-12-29T18:34:12;19.13;;;11.65;;
28796;SDS011;24974;54.444;18.560;2022-12-29T18:36:44;18.90;;;11.25;;
28796;SDS011;24974;54.444;18.560;2022-12-29T18:39:14;23.08;;;12.65;;
28796;SDS011;24974;54.444;18.560;2022-12-29T18:41:45;21.50;;;13.50;;
28796;SDS011;24974;54.444;18.560;2022-12-29T18:44:16;14.43;;;10.85;;
28796;SDS011;24974;54.444;18.560;2022-12-29T18:46:47;14.77;;;10.60;;
28796;SDS011;24974;54.444;18.560;2022-12-29T18:49:18;17.23;;;11.20;;
28796;SDS011;24974;54.444;18.560;2022-12-29T18:51:49;18.00;;;11.25;;
28796;SDS011;24974;54.444;18.560;2022-12-29T18:54:32;17.83;;;11.18;;
28796;SDS011;24974;54.444;18.560;2022-12-29T18:57:03;17.85;;;12.63;;
28796;SDS011;24974;54.444;18.560;2022-12-29T18:59:33;21.67;;;14.73;;
28796;SDS011;24974;54.444;18.560;2022-12-29T19:02:04;16.88;;;10.85;;
28796;SDS011;24974;54.444;18.560;2022-12-29T19:04:35;18.20;;;11.20;;
28796;SDS011;24974;54.444;18.560;2022-12-29T19:07:06;16.05;;;10.85;;
28796;SDS011;24974;54.444;18.560;2022-12-29T19:09:36;12.68;;;9.90;;
28796;SDS011;24974;54.444;18.560;2022-12-29T19:12:07;14.63;;;9.65;;
28796;SDS011;24974;54.444;18.560;2022-12-29T19:14:45;16.17;;;9.23;;
28796;SDS011;24974;54.444;18.560;2022-12-29T19:17:16;15.07;;;9.00;;
28796;SDS011;24974;54.444;18.560;2022-12-29T19:19:47;18.50;;;10.60;;
28796;SDS011;24974;54.444;18.560;2022-12-29T19:22:18;10.55;;;7.28;;
28796;SDS011;24974;54.444;18.560;2022-12-29T19:24:48;10.73;;;7.00;;
28796;SDS011;24974;54.444;18.560;2022-12-29T19:27:19;11.07;;;8.20;;
28796;SDS011;24974;54.444;18.560;2022-12-29T19:29:50;11.90;;;7.68;;
28796;SDS011;24974;54.444;18.560;2022-12-29T19:32:21;12.80;;;7.35;;
28796;SDS011;24974;54.444;18.560;2022-12-29T19:34:51;11.60;;;7.90;;
28796;SDS011;24974;54.444;18.560;2022-12-29T19:37:22;10.77;;;7.60;;
28796;SDS011;24974;54.444;18.560;2022-12-29T19:39:53;12.57;;;7.57;;
28796;SDS011;24974;54.444;18.560;2022-12-29T19:42:26;12.52;;;7.40;;
28796;SDS011;24974;54.444;18.560;2022-12-29T19:44:57;13.30;;;7.00;;
28796;SDS011;24974;54.444;18.560;2022-12-29T19:47:28;8.68;;;6.40;;
28796;SDS011;24974;54.444;18.560;2022-12-29T19:50:01;9.73;;;6.43;;
28796;SDS011;24974;54.444;18.560;2022-12-29T19:52:33;9.75;;;6.22;;
28796;SDS011;24974;54.444;18.560;2022-12-29T19:55:05;10.40;;;5.90;;
28796;SDS011;24974;54.444;18.560;2022-12-29T19:57:36;7.35;;;5.80;;
28796;SDS011;24974;54.444;18.560;2022-12-29T20:00:07;10.40;;;6.20;;
28796;SDS011;24974;54.444;18.560;2022-12-29T20:02:43;11.32;;;6.70;;
28796;SDS011;24974;54.444;18.560;2022-12-29T20:05:13;8.50;;;6.15;;
28796;SDS011;24974;54.444;18.560;2022-12-29T20:07:44;9.95;;;6.38;;
28796;SDS011;24974;54.444;18.560;2022-12-29T20:10:15;9.63;;;6.63;;
28796;SDS011;24974;54.444;18.560;2022-12-29T20:12:46;9.55;;;6.80;;
28796;SDS011;24974;54.444;18.560;2022-12-29T20:15:17;12.55;;;6.55;;
28796;SDS011;24974;54.444;18.560;2022-12-29T20:17:48;10.07;;;5.97;;
28796;SDS011;24974;54.444;18.560;2022-12-29T20:20:19;18.55;;;10.15;;
28796;SDS011;24974;54.444;18.560;2022-12-29T20:22:49;16.67;;;9.60;;
28796;SDS011;24974;54.444;18.560;2022-12-29T20:25:20;26.42;;;11.35;;
28796;SDS011;24974;54.444;18.560;2022-12-29T20:27:51;13.40;;;8.05;;
28796;SDS011;24974;54.444;18.560;2022-12-29T20:30:23;11.05;;;6.85;;
28796;SDS011;24974;54.444;18.560;2022-12-29T20:32:54;10.95;;;7.00;;
28796;SDS011;24974;54.444;18.560;2022-12-29T20:35:25;9.50;;;5.80;;
28796;SDS011;24974;54.444;18.560;2022-12-29T20:37:56;11.23;;;6.85;;
28796;SDS011;24974;54.444;18.560;2022-12-29T20:40:26;9.35;;;5.90;;
28796;SDS011;24974;54.444;18.560;2022-12-29T20:42:57;10.40;;;6.25;;
28796;SDS011;24974;54.444;18.560;2022-12-29T20:45:28;10.90;;;7.13;;
28796;SDS011;24974;54.444;18.560;2022-12-29T20:47:59;11.38;;;6.50;;
28796;SDS011;24974;54.444;18.560;2022-12-29T20:50:29;12.95;;;7.53;;
28796;SDS011;24974;54.444;18.560;2022-12-29T20:53:00;12.07;;;6.72;;
28796;SDS011;24974;54.444;18.560;2022-12-29T20:55:31;10.52;;;6.15;;
28796;SDS011;24974;54.444;18.560;2022-12-29T20:58:02;16.48;;;9.60;;
28796;SDS011;24974;54.444;18.560;2022-12-29T21:00:33;9.50;;;6.38;;
28796;SDS011;24974;54.444;18.560;2022-12-29T21:03:04;9.35;;;5.57;;
28796;SDS011;24974;54.444;18.560;2022-12-29T21:05:36;7.32;;;4.47;;
28796;SDS011;24974;54.444;18.560;2022-12-29T21:08:07;12.73;;;6.63;;
28796;SDS011;24974;54.444;18.560;2022-12-29T21:10:43;8.38;;;4.72;;
28796;SDS011;24974;54.444;18.560;2022-12-29T21:13:16;8.15;;;5.07;;
28796;SDS011;24974;54.444;18.560;2022-12-29T21:15:48;7.90;;;4.85;;
28796;SDS011;24974;54.444;18.560;2022-12-29T21:18:24;4.93;;;4.10;;
28796;SDS011;24974;54.444;18.560;2022-12-29T21:20:57;6.32;;;5.72;;
28796;SDS011;24974;54.444;18.560;2022-12-29T21:23:30;7.35;;;4.68;;
28796;SDS011;24974;54.444;18.560;2022-12-29T21:26:01;7.93;;;5.18;;
28796;SDS011;24974;54.444;18.560;2022-12-29T21:28:37;8.35;;;4.40;;
28796;SDS011;24974;54.444;18.560;2022-12-29T21:31:10;9.93;;;6.05;;
28796;SDS011;24974;54.444;18.560;2022-12-29T21:34:03;7.65;;;4.85;;
28796;SDS011;24974;54.444;18.560;2022-12-29T21:36:34;8.85;;;4.82;;
28796;SDS011;24974;54.444;18.560;2022-12-29T21:39:05;9.68;;;5.95;;
28796;SDS011;24974;54.444;18.560;2022-12-29T21:41:36;7.32;;;4.70;;
28796;SDS011;24974;54.444;18.560;2022-12-29T21:44:07;6.82;;;4.90;;
28796;SDS011;24974;54.444;18.560;2022-12-29T21:46:56;10.43;;;5.07;;
28796;SDS011;24974;54.444;18.560;2022-12-29T21:49:27;7.47;;;4.72;;
28796;SDS011;24974;54.444;18.560;2022-12-29T21:51:58;6.70;;;4.63;;
28796;SDS011;24974;54.444;18.560;2022-12-29T21:54:29;8.77;;;5.00;;
28796;SDS011;24974;54.444;18.560;2022-12-29T21:57:18;7.68;;;5.18;;
28796;SDS011;24974;54.444;18.560;2022-12-29T22:00:08;10.95;;;5.15;;
28796;SDS011;24974;54.444;18.560;2022-12-29T22:02:58;8.45;;;5.00;;
28796;SDS011;24974;54.444;18.560;2022-12-29T22:05:47;8.57;;;5.43;;
28796;SDS011;24974;54.444;18.560;2022-12-29T22:08:37;8.25;;;5.32;;
28796;SDS011;24974;54.444;18.560;2022-12-29T22:11:27;7.22;;;5.05;;
28796;SDS011;24974;54.444;18.560;2022-12-29T22:14:16;7.72;;;5.20;;
28796;SDS011;24974;54.444;18.560;2022-12-29T22:16:47;6.97;;;5.03;;
28796;SDS011;24974;54.444;18.560;2022-12-29T22:19:18;9.55;;;5.22;;
28796;SDS011;24974;54.444;18.560;2022-12-29T22:21:48;8.75;;;4.82;;
28796;SDS011;24974;54.444;18.560;2022-12-29T22:24:19;8.50;;;4.55;;
28796;SDS011;24974;54.444;18.560;2022-12-29T22:26:50;7.43;;;5.95;;
28796;SDS011;24974;54.444;18.560;2022-12-29T22:29:21;9.93;;;5.40;;
28796;SDS011;24974;54.444;18.560;2022-12-29T22:31:52;7.97;;;5.38;;
28796;SDS011;24974;54.444;18.560;2022-12-29T22:34:23;8.82;;;5.25;;
28796;SDS011;24974;54.444;18.560;2022-12-29T22:36:54;9.05;;;5.85;;
28796;SDS011;24974;54.444;18.560;2022-12-29T22:39:24;10.50;;;5.10;;
28796;SDS011;24974;54.444;18.560;2022-12-29T22:41:55;6.15;;;4.30;;
28796;SDS011;24974;54.444;18.560;2022-12-29T22:44:26;8.75;;;4.55;;
28796;SDS011;24974;54.444;18.560;2022-12-29T22:46:57;7.80;;;4.63;;
28796;SDS011;24974;54.444;18.560;2022-12-29T22:49:28;7.78;;;4.85;;
28796;SDS011;24974;54.444;18.560;2022-12-29T22:51:59;6.97;;;4.47;;
28796;SDS011;24974;54.444;18.560;2022-12-29T22:54:30;9.48;;;4.60;;
28796;SDS011;24974;54.444;18.560;2022-12-29T22:57:01;8.77;;;4.50;;
28796;SDS011;24974;54.444;18.560;2022-12-29T22:59:32;11.23;;;4.90;;
28796;SDS011;24974;54.444;18.560;2022-12-29T23:02:04;8.90;;;4.63;;
28796;SDS011;24974;54.444;18.560;2022-12-29T23:04:35;5.82;;;4.22;;
28796;SDS011;24974;54.444;18.560;2022-12-29T23:07:06;7.18;;;3.90;;
28796;SDS011;24974;54.444;18.560;2022-12-29T23:09:37;6.40;;;4.40;;
28796;SDS011;24974;54.444;18.560;2022-12-29T23:12:08;7.00;;;4.03;;
28796;SDS011;24974;54.444;18.560;2022-12-29T23:14:39;6.13;;;4.25;;
28796;SDS011;24974;54.444;18.560;2022-12-29T23:17:10;6.13;;;3.90;;
28796;SDS011;24974;54.444;18.560;2022-12-29T23:19:41;7.80;;;4.43;;
28796;SDS011;24974;54.444;18.560;2022-12-29T23:22:11;8.38;;;4.13;;
28796;SDS011;24974;54.444;18.560;2022-12-29T23:24:42;7.40;;;4.28;;
28796;SDS011;24974;54.444;18.560;2022-12-29T23:27:13;10.43;;;4.13;;
28796;SDS011;24974;54.444;18.560;2022-12-29T23:29:44;5.55;;;4.10;;
28796;SDS011;24974;54.444;18.560;2022-12-29T23:32:15;6.95;;;4.53;;
28796;SDS011;24974;54.444;18.560;2022-12-29T23:34:46;8.80;;;4.15;;
28796;SDS011;24974;54.444;18.560;2022-12-29T23:37:16;5.80;;;4.15;;
28796;SDS011;24974;54.444;18.560;2022-12-29T23:39:47;7.78;;;4.63;;
28796;SDS011;24974;54.444;18.560;2022-12-29T23:42:18;6.90;;;4.57;;
28796;SDS011;24974;54.444;18.560;2022-12-29T23:44:49;9.07;;;4.10;;
28796;SDS011;24974;54.444;18.560;2022-12-29T23:47:20;5.53;;;4.25;;
28796;SDS011;24974;54.444;18.560;2022-12-29T23:49:51;6.72;;;4.28;;
28796;SDS011;24974;54.444;18.560;2022-12-29T23:52:21;5.50;;;4.32;;
28796;SDS011;24974;54.444;18.560;2022-12-29T23:54:52;10.23;;;4.47;;
28796;SDS011;24974;54.444;18.560;2022-12-29T23:57:23;5.20;;;3.90;;
28796;SDS011;24974;54.444;18.560;2022-12-29T23:59:54;7.63;;;4.80;;
